createdAt,value
2023-04-26T00:00:08.920Z,97080.66
2023-04-26T00:02:38.656Z,97137.34
2023-04-26T00:05:09.570Z,97142.75
2023-04-26T00:07:39.231Z,97164.31
2023-04-26T00:10:08.626Z,97152.16
2023-04-26T00:12:37.096Z,97154.97
2023-04-26T00:15:05.831Z,97149.19
2023-04-26T00:17:34.177Z,97147.66
2023-04-26T00:20:04.368Z,97156.22
2023-04-26T00:22:32.665Z,97133.00
2023-04-26T00:25:00.792Z,97128.81
2023-04-26T00:27:28.998Z,97152.31
2023-04-26T00:29:57.169Z,97155.84
2023-04-26T00:32:25.412Z,97155.91
2023-04-26T00:34:53.678Z,97159.53
2023-04-26T00:37:23.439Z,97160.56
2023-04-26T00:39:51.595Z,97133.31
2023-04-26T00:42:20.687Z,97150.59
2023-04-26T00:44:50.409Z,97158.44
2023-04-26T00:47:18.711Z,97159.47
2023-04-26T00:49:47.022Z,97155.19
2023-04-26T00:52:15.515Z,97159.72
2023-04-26T00:54:45.239Z,97155.66
2023-04-26T00:57:13.902Z,97108.03
2023-04-26T00:59:42.402Z,97151.88
2023-04-26T01:02:10.673Z,97074.94
2023-04-26T01:04:39.895Z,97096.56
2023-04-26T01:07:08.330Z,97159.63
2023-04-26T01:09:36.471Z,97152.41
2023-04-26T01:12:07.489Z,97175.94
2023-04-26T01:14:37.167Z,97163.06
2023-04-26T01:17:06.310Z,97161.84
2023-04-26T01:19:37.531Z,97144.41
2023-04-26T01:22:05.748Z,97156.38
2023-04-26T01:24:36.852Z,97164.91
2023-04-26T01:27:05.236Z,97164.03
2023-04-26T01:29:33.528Z,97164.91
2023-04-26T01:32:01.699Z,97157.03
2023-04-26T01:34:29.973Z,97153.41
2023-04-26T01:36:58.174Z,97165.72
2023-04-26T01:39:26.376Z,97121.31
2023-04-26T01:41:56.224Z,97136.81
2023-04-26T01:44:24.367Z,97140.53
2023-04-26T01:46:52.502Z,97132.03
2023-04-26T01:49:20.826Z,97190.38
2023-04-26T01:51:48.954Z,97190.22
2023-04-26T01:54:17.146Z,97194.78
2023-04-26T01:56:45.276Z,97196.50
2023-04-26T01:59:15.194Z,97202.75
2023-04-26T02:01:43.626Z,97205.50
2023-04-26T02:04:11.921Z,97200.09
2023-04-26T02:06:41.779Z,97169.59
2023-04-26T02:09:10.253Z,97106.59
2023-04-26T02:11:38.377Z,97181.25
2023-04-26T02:14:06.550Z,97198.28
2023-04-26T02:16:36.558Z,97207.75
2023-04-26T02:19:05.410Z,97212.88
2023-04-26T02:21:33.598Z,97181.09
2023-04-26T02:24:01.713Z,97204.34
2023-04-26T02:26:29.911Z,97213.78
2023-04-26T02:28:58.036Z,97211.13
2023-04-26T02:31:26.209Z,97213.72
2023-04-26T02:33:56.475Z,97207.66
2023-04-26T02:36:24.631Z,97201.50
2023-04-26T02:38:53.158Z,97197.22
2023-04-26T02:41:21.984Z,97201.56
2023-04-26T02:43:50.112Z,97198.84
2023-04-26T02:46:18.375Z,97195.34
2023-04-26T02:48:46.517Z,97177.44
2023-04-26T02:51:16.180Z,97200.88
2023-04-26T02:53:44.292Z,97198.09
2023-04-26T02:56:12.385Z,97184.47
2023-04-26T02:58:40.501Z,97207.63
2023-04-26T03:01:08.838Z,97200.97
2023-04-26T03:03:37.607Z,97201.06
2023-04-26T03:06:06.522Z,97189.88
2023-04-26T03:08:36.792Z,97199.16
2023-04-26T03:11:04.979Z,97203.63
2023-04-26T03:13:33.102Z,97214.34
2023-04-26T03:16:01.321Z,97216.97
2023-04-26T03:18:29.599Z,97231.72
2023-04-26T03:20:57.765Z,97212.66
2023-04-26T03:23:26.023Z,97211.66
2023-04-26T03:25:55.769Z,97207.00
2023-04-26T03:28:23.929Z,97220.28
2023-04-26T03:30:52.121Z,97225.53
2023-04-26T03:33:20.261Z,97220.28
2023-04-26T03:35:48.398Z,97206.03
2023-04-26T03:38:16.606Z,97231.75
2023-04-26T03:40:44.830Z,97200.97
2023-04-26T03:43:14.402Z,97236.19
2023-04-26T03:45:42.668Z,97221.69
2023-04-26T03:48:10.905Z,97228.44
2023-04-26T03:50:39.645Z,97231.88
2023-04-26T03:53:07.874Z,97240.63
2023-04-26T03:55:36.099Z,97255.28
2023-04-26T03:58:07.912Z,97244.31
2023-04-26T04:00:38.825Z,97254.59
2023-04-26T04:03:07.717Z,97268.94
2023-04-26T04:05:36.333Z,97143.53
2023-04-26T04:08:04.559Z,97276.53
2023-04-26T04:10:32.758Z,97278.97
2023-04-26T04:13:00.895Z,97276.38
2023-04-26T04:15:29.085Z,97280.53
2023-04-26T04:17:58.685Z,97268.63
2023-04-26T04:20:26.939Z,97281.03
2023-04-26T04:22:55.425Z,97283.13
2023-04-26T04:25:24.955Z,97190.53
2023-04-26T04:27:53.501Z,97254.75
2023-04-26T04:30:21.711Z,97293.13
2023-04-26T04:32:50.312Z,97295.34
2023-04-26T04:35:19.998Z,97282.28
2023-04-26T04:37:50.232Z,97294.97
2023-04-26T04:40:18.554Z,97307.81
2023-04-26T04:42:47.216Z,97301.25
2023-04-26T04:45:16.112Z,97309.72
2023-04-26T04:47:45.463Z,97255.84
2023-04-26T04:50:14.586Z,97282.59
2023-04-26T04:52:44.474Z,97205.06
2023-04-26T04:55:12.743Z,97300.22
2023-04-26T04:57:43.127Z,97303.88
2023-04-26T05:00:13.201Z,97212.13
2023-04-26T05:02:41.567Z,97316.97
2023-04-26T05:05:10.818Z,97312.22
2023-04-26T05:07:39.227Z,97314.03
2023-04-26T05:10:09.780Z,97321.13
2023-04-26T05:12:38.266Z,97329.88
2023-04-26T05:15:07.599Z,97315.44
2023-04-26T05:17:35.932Z,97306.41
2023-04-26T05:20:07.567Z,97340.81
2023-04-26T05:22:37.077Z,97348.03
2023-04-26T05:25:06.010Z,97346.50
2023-04-26T05:27:36.877Z,97348.19
2023-04-26T05:30:05.990Z,97355.44
2023-04-26T05:32:34.189Z,97361.63
2023-04-26T05:35:02.835Z,97357.28
2023-04-26T05:37:31.811Z,97336.78
2023-04-26T05:40:00.372Z,97360.66
2023-04-26T05:42:28.592Z,97317.69
2023-04-26T05:45:00.216Z,97371.47
2023-04-26T05:47:28.546Z,97374.94
2023-04-26T05:49:56.723Z,97385.31
2023-04-26T05:52:24.869Z,97378.13
2023-04-26T05:54:53.051Z,97388.38
2023-04-26T05:57:21.261Z,97332.97
2023-04-26T05:59:49.471Z,97269.38
2023-04-26T06:02:19.133Z,97379.19
2023-04-26T06:04:47.581Z,97398.44
2023-04-26T06:07:16.125Z,97385.53
2023-04-26T06:09:44.705Z,97374.97
2023-04-26T06:12:12.888Z,97388.78
2023-04-26T06:14:41.136Z,97384.75
2023-04-26T06:17:09.703Z,97379.72
2023-04-26T06:19:39.369Z,97383.38
2023-04-26T06:22:07.519Z,97378.00
2023-04-26T06:24:35.713Z,97366.81
2023-04-26T06:27:03.909Z,97377.78
2023-04-26T06:29:34.454Z,97393.09
2023-04-26T06:32:02.715Z,97389.97
2023-04-26T06:34:31.281Z,97379.38
2023-04-26T06:37:01.083Z,97399.44
2023-04-26T06:39:29.265Z,97398.38
2023-04-26T06:41:57.534Z,97404.41
2023-04-26T06:44:25.828Z,97396.44
2023-04-26T06:46:55.678Z,97395.31
2023-04-26T06:49:24.139Z,97389.66
2023-04-26T06:51:53.298Z,97349.38
2023-04-26T06:54:22.942Z,97396.91
2023-04-26T06:56:51.196Z,97376.75
2023-04-26T06:59:19.379Z,97376.03
2023-04-26T07:01:47.741Z,97395.34
2023-04-26T07:04:18.458Z,97386.81
2023-04-26T07:06:46.986Z,97378.81
2023-04-26T07:09:15.273Z,97386.72
2023-04-26T07:11:47.626Z,97402.16
2023-04-26T07:14:15.843Z,97373.78
2023-04-26T07:16:44.590Z,97302.44
2023-04-26T07:19:13.109Z,97229.66
2023-04-26T07:21:41.587Z,97378.94
2023-04-26T07:24:09.956Z,97389.72
2023-04-26T07:26:38.311Z,97392.00
2023-04-26T07:29:08.008Z,97404.44
2023-04-26T07:31:37.094Z,97391.25
2023-04-26T07:34:05.243Z,97392.09
2023-04-26T07:36:33.445Z,97367.00
2023-04-26T07:39:01.671Z,97406.91
2023-04-26T07:41:29.853Z,97391.94
2023-04-26T07:43:59.288Z,97403.59
2023-04-26T07:46:28.900Z,97404.63
2023-04-26T07:48:57.117Z,97408.78
2023-04-26T07:51:25.360Z,97412.88
2023-04-26T07:53:53.901Z,97420.03
2023-04-26T07:56:24.139Z,97413.06
2023-04-26T07:58:52.418Z,97410.81
2023-04-26T08:01:20.640Z,97387.31
2023-04-26T08:03:50.516Z,97407.25
2023-04-26T08:06:19.198Z,97396.13
2023-04-26T08:08:50.766Z,97415.66
2023-04-26T08:11:19.303Z,97422.16
2023-04-26T08:13:47.596Z,97418.22
2023-04-26T08:16:16.866Z,97394.34
2023-04-26T08:18:46.930Z,97402.28
2023-04-26T08:21:16.916Z,97398.91
2023-04-26T08:23:45.202Z,97409.50
2023-04-26T08:26:13.625Z,97401.84
2023-04-26T08:28:41.788Z,97371.16
2023-04-26T08:31:10.395Z,97306.34
2023-04-26T08:33:38.601Z,97397.53
2023-04-26T08:36:07.549Z,97402.75
2023-04-26T08:38:37.170Z,97403.41
2023-04-26T08:41:06.409Z,97406.88
2023-04-26T08:43:37.854Z,97371.97
2023-04-26T08:46:12.574Z,97410.91
2023-04-26T08:48:42.056Z,97411.56
2023-04-26T08:51:14.294Z,97409.72
2023-04-26T08:53:44.627Z,97382.75
2023-04-26T08:56:14.645Z,97420.09
2023-04-26T08:58:43.360Z,97414.16
2023-04-26T09:03:43.791Z,97408.56
2023-04-26T09:06:13.200Z,97405.34
2023-04-26T09:08:44.667Z,97410.31
2023-04-26T09:11:13.057Z,97408.09
2023-04-26T09:13:41.276Z,97420.28
2023-04-26T09:16:10.100Z,97412.31
2023-04-26T09:18:51.594Z,97419.66
2023-04-26T09:21:20.393Z,97415.53
2023-04-26T09:24:01.903Z,97411.25
2023-04-26T09:26:30.162Z,97416.41
2023-04-26T09:29:13.947Z,97412.88
2023-04-26T09:31:43.696Z,97415.59
2023-04-26T09:34:12.645Z,97386.19
2023-04-26T09:36:51.527Z,97388.09
2023-04-26T09:39:37.459Z,97388.63
2023-04-26T09:42:06.326Z,97388.53
2023-04-26T09:44:34.916Z,97399.41
2023-04-26T09:47:04.901Z,97374.72
2023-04-26T09:49:34.481Z,97399.84
2023-04-26T09:52:08.337Z,97402.00
2023-04-26T09:54:45.468Z,97411.81
2023-04-26T09:57:15.086Z,97406.56
2023-04-26T09:59:44.800Z,97383.81
2023-04-26T10:02:20.729Z,97363.66
2023-04-26T10:04:50.390Z,97404.84
2023-04-26T10:07:20.037Z,97390.41
2023-04-26T10:09:50.653Z,97371.16
2023-04-26T10:12:20.185Z,97390.72
2023-04-26T10:14:48.749Z,97374.13
2023-04-26T10:17:17.424Z,97386.84
2023-04-26T10:19:47.177Z,97386.66
2023-04-26T10:22:20.748Z,97374.41
2023-04-26T10:24:51.711Z,97376.31
2023-04-26T10:27:50.283Z,97370.13
2023-04-26T10:30:19.409Z,97358.09
2023-04-26T10:33:17.770Z,97373.78
2023-04-26T10:36:07.031Z,97369.34
2023-04-26T10:38:35.852Z,97349.09
2023-04-26T10:41:37.530Z,97358.75
2023-04-26T10:44:41.227Z,97367.13
2023-04-26T10:47:22.043Z,97366.19
2023-04-26T10:49:50.348Z,97363.72
2023-04-26T10:52:20.502Z,97365.72
2023-04-26T10:54:50.808Z,97362.75
2023-04-26T10:57:21.670Z,97349.81
2023-04-26T11:00:21.049Z,97356.88
2023-04-26T11:02:57.648Z,97339.97
2023-04-26T11:05:37.637Z,97333.03
2023-04-26T11:08:08.994Z,97309.88
2023-04-26T11:10:44.362Z,97324.00
2023-04-26T11:13:14.018Z,97318.69
2023-04-26T11:15:42.236Z,97336.09
2023-04-26T11:18:10.539Z,97340.53
2023-04-26T11:20:38.707Z,97335.00
2023-04-26T11:23:09.742Z,97337.09
2023-04-26T11:25:41.448Z,97320.75
2023-04-26T11:28:09.661Z,97334.72
2023-04-26T11:30:39.290Z,97330.03
2023-04-26T11:33:07.934Z,97312.72
2023-04-26T11:35:37.407Z,97318.19
2023-04-26T11:38:06.781Z,97330.63
2023-04-26T11:40:36.768Z,97319.53
2023-04-26T11:43:06.670Z,97320.66
2023-04-26T11:45:36.336Z,97317.34
2023-04-26T11:48:07.529Z,97315.66
2023-04-26T11:50:38.197Z,97333.31
2023-04-26T11:53:08.169Z,97276.00
2023-04-26T11:55:37.079Z,97328.47
2023-04-26T11:58:12.690Z,97301.34
2023-04-26T12:00:59.165Z,97323.84
2023-04-26T12:03:33.740Z,97313.94
2023-04-26T12:06:02.446Z,97299.56
2023-04-26T12:08:30.849Z,97309.66
2023-04-26T12:11:02.503Z,97311.31
2023-04-26T12:13:32.393Z,97316.34
2023-04-26T12:16:00.597Z,97301.53
2023-04-26T12:18:33.842Z,97289.66
2023-04-26T12:21:02.784Z,97304.47
2023-04-26T12:23:39.593Z,97296.63
2023-04-26T12:26:11.257Z,97299.69
2023-04-26T12:28:39.759Z,97296.28
2023-04-26T12:31:08.468Z,97211.91
2023-04-26T12:33:38.310Z,97278.03
2023-04-26T12:36:11.386Z,97184.81
2023-04-26T12:38:39.632Z,97269.59
2023-04-26T12:41:07.957Z,97300.38
2023-04-26T12:43:36.858Z,97294.34
2023-04-26T12:46:05.619Z,97278.13
2023-04-26T12:48:33.826Z,97274.34
2023-04-26T12:51:03.395Z,97288.09
2023-04-26T12:53:31.611Z,97293.28
2023-04-26T12:56:00.194Z,97268.38
2023-04-26T12:58:29.262Z,97276.78
2023-04-26T13:00:57.575Z,97294.38
2023-04-26T13:03:25.953Z,97290.03
2023-04-26T13:05:54.241Z,97284.91
2023-04-26T13:08:24.503Z,97284.97
2023-04-26T13:10:52.798Z,97274.84
2023-04-26T13:13:26.299Z,97291.22
2023-04-26T13:16:00.870Z,97276.25
2023-04-26T13:18:29.191Z,97289.69
2023-04-26T13:20:57.403Z,97282.50
2023-04-26T13:23:27.027Z,97282.31
2023-04-26T13:25:55.284Z,97204.13
2023-04-26T13:28:23.581Z,97288.69
2023-04-26T13:30:52.571Z,97291.97
2023-04-26T13:33:21.518Z,97268.84
2023-04-26T13:35:49.974Z,97293.69
2023-04-26T13:38:18.499Z,97269.81
2023-04-26T13:40:48.416Z,97277.00
2023-04-26T13:43:16.680Z,97192.81
2023-04-26T13:45:44.991Z,97284.34
2023-04-26T13:48:13.502Z,97280.19
2023-04-26T13:50:41.892Z,97283.16
2023-04-26T13:53:10.501Z,97279.88
2023-04-26T13:55:38.761Z,97283.47
2023-04-26T13:58:08.418Z,97268.81
2023-04-26T14:00:36.772Z,97287.84
2023-04-26T14:03:05.304Z,97279.03
2023-04-26T14:05:33.579Z,97279.50
2023-04-26T14:08:02.289Z,97265.94
2023-04-26T14:10:30.612Z,97278.09
2023-04-26T14:12:58.777Z,97281.13
2023-04-26T14:15:28.937Z,97210.75
2023-04-26T14:17:57.157Z,97249.34
2023-04-26T14:20:25.496Z,97284.28
2023-04-26T14:22:53.769Z,97292.25
2023-04-26T14:25:22.078Z,97284.75
2023-04-26T14:27:51.855Z,97276.78
2023-04-26T14:30:21.624Z,97204.63
2023-04-26T14:32:51.473Z,97291.84
2023-04-26T14:35:19.823Z,97289.13
2023-04-26T14:37:48.172Z,97294.75
2023-04-26T14:40:16.507Z,97295.41
2023-04-26T14:42:46.218Z,97297.63
2023-04-26T14:45:14.901Z,97283.94
2023-04-26T14:47:43.193Z,97185.06
2023-04-26T14:50:14.219Z,97199.63
2023-04-26T14:52:42.470Z,97289.50
2023-04-26T14:55:11.102Z,97281.84
2023-04-26T14:57:41.987Z,97267.84
2023-04-26T15:00:15.503Z,97281.09
2023-04-26T15:02:44.011Z,97286.53
2023-04-26T15:05:14.780Z,97291.06
2023-04-26T15:07:43.245Z,97261.03
2023-04-26T15:10:11.860Z,97273.56
2023-04-26T15:12:40.229Z,97260.03
2023-04-26T15:15:09.577Z,97284.91
2023-04-26T15:17:37.992Z,97284.53
2023-04-26T15:20:07.510Z,97288.31
2023-04-26T15:22:38.688Z,97280.63
2023-04-26T15:25:08.538Z,97271.16
2023-04-26T15:27:37.266Z,97299.38
2023-04-26T15:30:06.276Z,97264.34
2023-04-26T15:32:34.658Z,97289.88
2023-04-26T15:35:04.085Z,97289.41
2023-04-26T15:37:32.360Z,97219.38
2023-04-26T15:40:01.991Z,97291.34
2023-04-26T15:42:30.471Z,97286.00
2023-04-26T15:44:59.249Z,97292.47
2023-04-26T15:47:27.544Z,97280.31
2023-04-26T15:49:56.036Z,97298.50
2023-04-26T15:52:24.325Z,97285.97
2023-04-26T15:54:52.904Z,97300.13
2023-04-26T15:57:22.674Z,97286.91
2023-04-26T15:59:51.298Z,97291.81
2023-04-26T16:02:19.850Z,97188.88
2023-04-26T16:04:48.204Z,97301.47
2023-04-26T16:07:16.894Z,97288.34
2023-04-26T16:09:46.104Z,97305.50
2023-04-26T16:12:14.379Z,97303.66
2023-04-26T16:14:44.063Z,97316.75
2023-04-26T16:17:12.432Z,97302.41
2023-04-26T16:19:40.744Z,97298.09
2023-04-26T16:22:09.012Z,97308.72
2023-04-26T16:24:37.223Z,97312.31
2023-04-26T16:27:05.911Z,97300.72
2023-04-26T16:29:34.258Z,97317.88
2023-04-26T16:32:04.021Z,97282.47
2023-04-26T16:34:32.254Z,97321.91
2023-04-26T16:37:00.459Z,97314.88
2023-04-26T16:39:28.948Z,97322.50
2023-04-26T16:41:57.623Z,97322.81
2023-04-26T16:44:26.063Z,97323.34
2023-04-26T16:46:54.450Z,97321.75
2023-04-26T16:49:24.256Z,97309.47
2023-04-26T16:51:56.475Z,97310.34
2023-04-26T16:54:24.658Z,97322.81
2023-04-26T16:56:52.927Z,97268.09
2023-04-26T16:59:21.219Z,97307.28
2023-04-26T17:01:49.463Z,97330.19
2023-04-26T17:04:17.895Z,97330.97
2023-04-26T17:06:47.597Z,97333.66
2023-04-26T17:09:15.773Z,97213.09
2023-04-26T17:11:44.963Z,97344.31
2023-04-26T17:14:13.450Z,97344.91
2023-04-26T17:16:41.853Z,97325.31
2023-04-26T17:19:10.278Z,97320.81
2023-04-26T17:21:38.499Z,97348.25
2023-04-26T17:24:08.812Z,97336.91
2023-04-26T17:26:36.981Z,97356.09
2023-04-26T17:29:05.136Z,97360.31
2023-04-26T17:31:33.300Z,97358.19
2023-04-26T17:34:04.062Z,97350.09
2023-04-26T17:36:33.099Z,97366.16
2023-04-26T17:39:01.426Z,97374.13
2023-04-26T17:41:31.234Z,97373.59
2023-04-26T17:43:59.503Z,97382.47
2023-04-26T17:46:27.813Z,97355.97
2023-04-26T17:48:56.731Z,97378.22
2023-04-26T17:51:24.912Z,97386.22
2023-04-26T17:53:53.118Z,97267.50
2023-04-26T17:56:21.385Z,97396.97
2023-04-26T17:58:50.930Z,97401.69
2023-04-26T18:01:20.211Z,97400.28
2023-04-26T18:03:49.293Z,97403.28
2023-04-26T18:06:19.458Z,97402.59
2023-04-26T18:08:48.161Z,97380.22
2023-04-26T18:11:16.378Z,97433.44
2023-04-26T18:13:44.583Z,97331.44
2023-04-26T18:16:16.912Z,97439.22
2023-04-26T18:18:45.289Z,97362.69
2023-04-26T18:21:13.452Z,97441.69
2023-04-26T18:23:41.695Z,97450.75
2023-04-26T18:26:09.950Z,97408.56
2023-04-26T18:28:38.291Z,97450.75
2023-04-26T18:31:08.189Z,97457.63
2023-04-26T18:33:37.856Z,97456.63
2023-04-26T18:36:06.503Z,97442.34
2023-04-26T18:38:34.917Z,97422.69
2023-04-26T18:41:03.463Z,97463.34
2023-04-26T18:43:31.680Z,97465.19
2023-04-26T18:46:00.114Z,97469.00
2023-04-26T18:48:28.390Z,97476.13
2023-04-26T18:50:58.003Z,97408.56
2023-04-26T18:53:26.171Z,97481.69
2023-04-26T18:55:54.488Z,97493.09
2023-04-26T18:58:22.852Z,97494.84
2023-04-26T19:00:51.137Z,97493.19
2023-04-26T19:03:19.819Z,97494.97
2023-04-26T19:05:48.308Z,97495.91
2023-04-26T19:08:18.540Z,97502.19
2023-04-26T19:10:46.749Z,97484.03
2023-04-26T19:13:14.910Z,97497.91
2023-04-26T19:15:43.196Z,97504.06
2023-04-26T19:18:11.439Z,97486.09
2023-04-26T19:20:40.287Z,97511.25
2023-04-26T19:23:08.489Z,97515.94
2023-04-26T19:25:38.090Z,97521.41
2023-04-26T19:28:06.523Z,97498.50
2023-04-26T19:30:34.790Z,97518.41
2023-04-26T19:33:03.426Z,97528.53
2023-04-26T19:35:31.611Z,97527.00
2023-04-26T19:37:59.806Z,97505.16
2023-04-26T19:40:28.044Z,97513.66
2023-04-26T19:42:57.687Z,97545.88
2023-04-26T19:45:25.906Z,97539.94
2023-04-26T19:47:54.077Z,97556.13
2023-04-26T19:50:22.269Z,97553.56
2023-04-26T19:52:50.620Z,97539.47
2023-04-26T19:55:19.139Z,97570.59
2023-04-26T19:57:47.986Z,97562.25
2023-04-26T20:00:17.966Z,97543.25
2023-04-26T20:02:46.344Z,97573.75
2023-04-26T20:05:15.048Z,97560.81
2023-04-26T20:07:43.300Z,97467.16
2023-04-26T20:10:11.864Z,97536.75
2023-04-26T20:12:40.633Z,97566.69
2023-04-26T20:15:10.278Z,97577.06
2023-04-26T20:17:40.024Z,97559.69
2023-04-26T20:20:10.289Z,97551.38
2023-04-26T20:22:38.717Z,97545.41
2023-04-26T20:25:07.984Z,97564.75
2023-04-26T20:27:36.402Z,97584.25
2023-04-26T20:30:05.009Z,97576.66
2023-04-26T20:32:33.443Z,97589.38
2023-04-26T20:35:03.209Z,97570.38
2023-04-26T20:37:31.582Z,97582.50
2023-04-26T20:39:59.768Z,97559.56
2023-04-26T20:42:28.726Z,97585.38
2023-04-26T20:44:57.955Z,97569.22
2023-04-26T20:47:27.477Z,97571.97
2023-04-26T20:49:55.737Z,97569.44
2023-04-26T20:52:25.742Z,97553.78
2023-04-26T20:54:53.951Z,97592.97
2023-04-26T20:57:22.188Z,97549.34
2023-04-26T20:59:50.377Z,97591.47
2023-04-26T21:02:18.756Z,97570.94
2023-04-26T21:04:47.181Z,97597.53
2023-04-26T21:07:16.061Z,97603.69
2023-04-26T21:09:47.258Z,97552.00
2023-04-26T21:12:15.738Z,97602.75
2023-04-26T21:14:46.025Z,97608.94
2023-04-26T21:17:14.257Z,97600.19
2023-04-26T21:19:42.368Z,97532.19
2023-04-26T21:22:11.879Z,97615.72
2023-04-26T21:24:40.830Z,97591.66
2023-04-26T21:27:10.882Z,97629.66
2023-04-26T21:29:39.329Z,97628.69
2023-04-26T21:32:07.588Z,97626.66
2023-04-26T21:34:36.662Z,97614.72
2023-04-26T21:37:05.395Z,97643.16
2023-04-26T21:39:33.726Z,97638.78
2023-04-26T21:42:03.764Z,97644.75
2023-04-26T21:44:33.599Z,97639.75
2023-04-26T21:47:01.996Z,97644.25
2023-04-26T21:49:30.389Z,97496.34
2023-04-26T21:51:58.544Z,97654.78
2023-04-26T21:54:26.716Z,97632.22
2023-04-26T21:56:54.797Z,97646.22
2023-04-26T21:59:23.027Z,97653.19
2023-04-26T22:01:52.676Z,97616.38
2023-04-26T22:04:21.034Z,97662.66
2023-04-26T22:06:49.336Z,97658.34
2023-04-26T22:09:17.598Z,97672.19
2023-04-26T22:11:45.755Z,97453.81
2023-04-26T22:14:14.262Z,97674.75
2023-04-26T22:16:42.712Z,97668.75
2023-04-26T22:19:12.535Z,97674.78
2023-04-26T22:21:40.954Z,97658.44
2023-04-26T22:24:10.501Z,97676.59
2023-04-26T22:26:38.647Z,97681.78
2023-04-26T22:29:07.178Z,97684.53
2023-04-26T22:31:35.359Z,97687.22
2023-04-26T22:34:03.613Z,97681.97
2023-04-26T22:36:33.686Z,97699.19
2023-04-26T22:39:01.976Z,97698.41
2023-04-26T22:41:30.189Z,97707.97
2023-04-26T22:43:58.407Z,97720.97
2023-04-26T22:46:26.753Z,97713.13
2023-04-26T22:48:55.069Z,97712.53
2023-04-26T22:51:23.361Z,97662.50
2023-04-26T22:53:52.975Z,97713.16
2023-04-26T22:56:21.134Z,97723.03
2023-04-26T22:58:49.238Z,97714.56
2023-04-26T23:01:17.497Z,97705.94
2023-04-26T23:03:45.907Z,97683.75
2023-04-26T23:06:14.056Z,97696.72
2023-04-26T23:08:42.109Z,97719.84
2023-04-26T23:11:11.807Z,97723.28
2023-04-26T23:13:39.901Z,97616.72
2023-04-26T23:16:08.932Z,97716.56
2023-04-26T23:18:37.328Z,97686.59
2023-04-26T23:21:05.893Z,97719.22
2023-04-26T23:23:34.039Z,97729.78
2023-04-26T23:26:02.210Z,97712.72
2023-04-26T23:28:31.864Z,97733.34
2023-04-26T23:31:00.027Z,97574.84
2023-04-26T23:33:28.187Z,97733.28
2023-04-26T23:35:56.942Z,97704.91
2023-04-26T23:38:25.102Z,97735.91
2023-04-26T23:40:53.170Z,97697.22
2023-04-26T23:43:21.369Z,97738.88
2023-04-26T23:45:51.371Z,97731.25
2023-04-26T23:48:19.596Z,97718.41
2023-04-26T23:50:47.727Z,97732.22
2023-04-26T23:53:15.897Z,97716.75
2023-04-26T23:55:44.127Z,97736.69
2023-04-26T23:58:12.321Z,97709.00
